sensor_id;sensor_type;location;lat;lon;timestamp;P1;durP1;ratioP1;P2;durP2;ratioP2
55537;SDS011;41383;51.418;7.286;2023-07-29T00:00:12;831.72;;;773.88;;
55537;SDS011;41383;51.418;7.286;2023-07-29T00:02:38;900.47;;;831.05;;
55537;SDS011;41383;51.418;7.286;2023-07-29T00:05:03;879.38;;;812.67;;
55537;SDS011;41383;51.418;7.286;2023-07-29T00:07:29;791.10;;;733.90;;
55537;SDS011;41383;51.418;7.286;2023-07-29T00:09:54;816.22;;;759.92;;
55537;SDS011;41383;51.418;7.286;2023-07-29T00:12:19;934.85;;;859.15;;
55537;SDS011;41383;51.418;7.286;2023-07-29T00:14:45;878.47;;;812.73;;
55537;SDS011;41383;51.418;7.286;2023-07-29T00:17:10;802.67;;;745.10;;
55537;SDS011;41383;51.418;7.286;2023-07-29T00:19:35;872.27;;;810.83;;
55537;SDS011;41383;51.418;7.286;2023-07-29T00:22:00;757.50;;;706.10;;
55537;SDS011;41383;51.418;7.286;2023-07-29T00:24:26;835.10;;;775.35;;
55537;SDS011;41383;51.418;7.286;2023-07-29T00:26:51;887.30;;;818.70;;
55537;SDS011;41383;51.418;7.286;2023-07-29T00:29:16;932.77;;;856.10;;
55537;SDS011;41383;51.418;7.286;2023-07-29T00:31:42;832.13;;;772.72;;
55537;SDS011;41383;51.418;7.286;2023-07-29T00:34:07;862.07;;;796.97;;
55537;SDS011;41383;51.418;7.286;2023-07-29T00:36:32;930.67;;;859.58;;
55537;SDS011;41383;51.418;7.286;2023-07-29T00:38:57;768.40;;;715.93;;
55537;SDS011;41383;51.418;7.286;2023-07-29T00:41:23;889.03;;;823.33;;
55537;SDS011;41383;51.418;7.286;2023-07-29T00:43:49;736.85;;;686.50;;
55537;SDS011;41383;51.418;7.286;2023-07-29T00:46:15;787.22;;;731.78;;
55537;SDS011;41383;51.418;7.286;2023-07-29T00:48:41;742.28;;;692.65;;
55537;SDS011;41383;51.418;7.286;2023-07-29T00:51:07;852.40;;;785.80;;
55537;SDS011;41383;51.418;7.286;2023-07-29T00:53:32;781.10;;;727.40;;
55537;SDS011;41383;51.418;7.286;2023-07-29T00:55:58;826.97;;;765.00;;
55537;SDS011;41383;51.418;7.286;2023-07-29T00:58:23;884.50;;;817.50;;
55537;SDS011;41383;51.418;7.286;2023-07-29T01:00:48;802.47;;;747.03;;
55537;SDS011;41383;51.418;7.286;2023-07-29T01:03:15;1007.28;;;919.58;;
55537;SDS011;41383;51.418;7.286;2023-07-29T01:05:46;865.63;;;804.83;;
55537;SDS011;41383;51.418;7.286;2023-07-29T01:08:22;859.95;;;792.33;;
55537;SDS011;41383;51.418;7.286;2023-07-29T01:10:58;938.55;;;863.75;;
55537;SDS011;41383;51.418;7.286;2023-07-29T01:13:29;937.55;;;865.35;;
55537;SDS011;41383;51.418;7.286;2023-07-29T01:16:04;757.22;;;707.10;;
55537;SDS011;41383;51.418;7.286;2023-07-29T01:18:37;897.47;;;832.70;;
55537;SDS011;41383;51.418;7.286;2023-07-29T01:21:04;995.85;;;913.88;;
55537;SDS011;41383;51.418;7.286;2023-07-29T01:23:33;903.85;;;835.80;;
55537;SDS011;41383;51.418;7.286;2023-07-29T01:25:59;848.90;;;784.85;;
55537;SDS011;41383;51.418;7.286;2023-07-29T01:28:24;824.30;;;765.70;;
55537;SDS011;41383;51.418;7.286;2023-07-29T01:30:51;856.38;;;794.88;;
55537;SDS011;41383;51.418;7.286;2023-07-29T01:33:25;842.50;;;784.03;;
55537;SDS011;41383;51.418;7.286;2023-07-29T01:35:55;802.60;;;746.53;;
55537;SDS011;41383;51.418;7.286;2023-07-29T01:38:30;823.08;;;765.88;;
55537;SDS011;41383;51.418;7.286;2023-07-29T01:41:00;948.50;;;877.50;;
55537;SDS011;41383;51.418;7.286;2023-07-29T01:43:28;884.95;;;815.67;;
55537;SDS011;41383;51.418;7.286;2023-07-29T01:45:54;762.38;;;712.70;;
55537;SDS011;41383;51.418;7.286;2023-07-29T01:48:19;906.03;;;835.17;;
55537;SDS011;41383;51.418;7.286;2023-07-29T01:50:45;874.33;;;810.67;;
55537;SDS011;41383;51.418;7.286;2023-07-29T01:53:10;866.28;;;801.05;;
55537;SDS011;41383;51.418;7.286;2023-07-29T01:55:35;879.73;;;813.63;;
55537;SDS011;41383;51.418;7.286;2023-07-29T01:58:00;874.03;;;809.30;;
55537;SDS011;41383;51.418;7.286;2023-07-29T02:00:26;921.83;;;853.90;;
55537;SDS011;41383;51.418;7.286;2023-07-29T02:02:51;888.97;;;822.00;;
55537;SDS011;41383;51.418;7.286;2023-07-29T02:05:16;766.63;;;715.20;;
55537;SDS011;41383;51.418;7.286;2023-07-29T02:07:41;846.70;;;784.50;;
55537;SDS011;41383;51.418;7.286;2023-07-29T02:10:07;896.45;;;826.60;;
55537;SDS011;41383;51.418;7.286;2023-07-29T02:12:33;738.97;;;689.40;;
55537;SDS011;41383;51.418;7.286;2023-07-29T02:14:58;739.27;;;689.87;;
55537;SDS011;41383;51.418;7.286;2023-07-29T02:17:23;843.73;;;783.67;;
55537;SDS011;41383;51.418;7.286;2023-07-29T02:19:48;767.27;;;714.73;;
55537;SDS011;41383;51.418;7.286;2023-07-29T02:22:16;797.50;;;743.27;;
55537;SDS011;41383;51.418;7.286;2023-07-29T02:24:42;847.00;;;779.83;;
55537;SDS011;41383;51.418;7.286;2023-07-29T02:27:07;853.58;;;791.63;;
55537;SDS011;41383;51.418;7.286;2023-07-29T02:29:33;804.67;;;747.45;;
55537;SDS011;41383;51.418;7.286;2023-07-29T02:31:59;871.13;;;806.35;;
55537;SDS011;41383;51.418;7.286;2023-07-29T02:34:24;844.60;;;784.30;;
55537;SDS011;41383;51.418;7.286;2023-07-29T02:36:50;836.60;;;778.47;;
55537;SDS011;41383;51.418;7.286;2023-07-29T02:39:15;762.10;;;709.13;;
55537;SDS011;41383;51.418;7.286;2023-07-29T02:41:40;720.87;;;674.23;;
55537;SDS011;41383;51.418;7.286;2023-07-29T02:44:05;981.87;;;903.53;;
55537;SDS011;41383;51.418;7.286;2023-07-29T02:46:31;971.35;;;897.25;;
55537;SDS011;41383;51.418;7.286;2023-07-29T02:48:56;988.55;;;911.13;;
55537;SDS011;41383;51.418;7.286;2023-07-29T02:51:22;948.70;;;876.65;;
55537;SDS011;41383;51.418;7.286;2023-07-29T02:53:47;928.73;;;860.47;;
55537;SDS011;41383;51.418;7.286;2023-07-29T02:56:12;931.37;;;860.30;;
55537;SDS011;41383;51.418;7.286;2023-07-29T02:58:38;964.95;;;891.53;;
55537;SDS011;41383;51.418;7.286;2023-07-29T03:01:04;941.15;;;873.35;;
55537;SDS011;41383;51.418;7.286;2023-07-29T03:03:30;971.20;;;898.45;;
55537;SDS011;41383;51.418;7.286;2023-07-29T03:05:58;917.33;;;851.67;;
55537;SDS011;41383;51.418;7.286;2023-07-29T03:08:34;919.80;;;848.72;;
55537;SDS011;41383;51.418;7.286;2023-07-29T03:11:07;916.45;;;848.35;;
55537;SDS011;41383;51.418;7.286;2023-07-29T03:16:06;921.58;;;855.40;;
55537;SDS011;41383;51.418;7.286;2023-07-29T03:18:36;898.25;;;834.53;;
55537;SDS011;41383;51.418;7.286;2023-07-29T03:21:02;905.60;;;839.70;;
55537;SDS011;41383;51.418;7.286;2023-07-29T03:23:29;965.75;;;890.78;;
55537;SDS011;41383;51.418;7.286;2023-07-29T03:25:55;978.55;;;904.63;;
55537;SDS011;41383;51.418;7.286;2023-07-29T03:28:23;953.50;;;883.30;;
55537;SDS011;41383;51.418;7.286;2023-07-29T03:30:50;991.83;;;911.67;;
55537;SDS011;41383;51.418;7.286;2023-07-29T03:33:15;968.80;;;894.60;;
55537;SDS011;41383;51.418;7.286;2023-07-29T03:35:41;936.42;;;866.80;;
55537;SDS011;41383;51.418;7.286;2023-07-29T03:38:09;933.85;;;866.80;;
55537;SDS011;41383;51.418;7.286;2023-07-29T03:40:35;924.22;;;857.72;;
55537;SDS011;41383;51.418;7.286;2023-07-29T03:43:01;960.13;;;888.35;;
55537;SDS011;41383;51.418;7.286;2023-07-29T03:45:26;872.08;;;811.08;;
55537;SDS011;41383;51.418;7.286;2023-07-29T03:47:51;899.85;;;830.20;;
55537;SDS011;41383;51.418;7.286;2023-07-29T03:50:17;928.95;;;857.08;;
55537;SDS011;41383;51.418;7.286;2023-07-29T03:52:42;941.97;;;868.40;;
55537;SDS011;41383;51.418;7.286;2023-07-29T03:55:08;862.55;;;801.15;;
55537;SDS011;41383;51.418;7.286;2023-07-29T03:57:33;841.50;;;780.47;;
55537;SDS011;41383;51.418;7.286;2023-07-29T03:59:59;839.33;;;779.60;;
55537;SDS011;41383;51.418;7.286;2023-07-29T04:02:24;969.05;;;892.22;;
55537;SDS011;41383;51.418;7.286;2023-07-29T04:04:50;950.58;;;874.28;;
55537;SDS011;41383;51.418;7.286;2023-07-29T04:07:15;1055.60;;;967.75;;
55537;SDS011;41383;51.418;7.286;2023-07-29T04:09:40;948.67;;;876.25;;
55537;SDS011;41383;51.418;7.286;2023-07-29T04:12:08;1022.63;;;939.78;;
55537;SDS011;41383;51.418;7.286;2023-07-29T04:14:33;1037.53;;;951.97;;
55537;SDS011;41383;51.418;7.286;2023-07-29T04:16:59;953.15;;;876.63;;
55537;SDS011;41383;51.418;7.286;2023-07-29T04:19:24;948.22;;;872.85;;
55537;SDS011;41383;51.418;7.286;2023-07-29T04:21:49;938.70;;;859.88;;
55537;SDS011;41383;51.418;7.286;2023-07-29T04:24:15;1118.18;;;999.90;;
55537;SDS011;41383;51.418;7.286;2023-07-29T04:26:41;1149.35;;;999.90;;
55537;SDS011;41383;51.418;7.286;2023-07-29T04:29:06;1032.22;;;942.72;;
55537;SDS011;41383;51.418;7.286;2023-07-29T04:31:31;1054.45;;;963.67;;
55537;SDS011;41383;51.418;7.286;2023-07-29T04:33:57;999.08;;;914.13;;
55537;SDS011;41383;51.418;7.286;2023-07-29T04:36:22;949.80;;;872.27;;
55537;SDS011;41383;51.418;7.286;2023-07-29T04:38:47;861.05;;;792.15;;
55537;SDS011;41383;51.418;7.286;2023-07-29T04:41:12;987.63;;;906.07;;
55537;SDS011;41383;51.418;7.286;2023-07-29T04:43:38;935.17;;;859.22;;
55537;SDS011;41383;51.418;7.286;2023-07-29T04:46:06;911.37;;;841.37;;
55537;SDS011;41383;51.418;7.286;2023-07-29T04:48:32;1050.93;;;962.75;;
55537;SDS011;41383;51.418;7.286;2023-07-29T04:50:58;1017.53;;;936.33;;
55537;SDS011;41383;51.418;7.286;2023-07-29T04:53:23;994.75;;;911.67;;
55537;SDS011;41383;51.418;7.286;2023-07-29T04:55:48;894.13;;;818.63;;
55537;SDS011;41383;51.418;7.286;2023-07-29T04:58:14;963.08;;;882.38;;
55537;SDS011;41383;51.418;7.286;2023-07-29T05:00:39;1025.63;;;936.40;;
55537;SDS011;41383;51.418;7.286;2023-07-29T05:03:04;801.15;;;739.25;;
55537;SDS011;41383;51.418;7.286;2023-07-29T05:05:29;976.67;;;895.55;;
55537;SDS011;41383;51.418;7.286;2023-07-29T05:07:55;904.53;;;833.55;;
55537;SDS011;41383;51.418;7.286;2023-07-29T05:10:20;904.63;;;831.88;;
55537;SDS011;41383;51.418;7.286;2023-07-29T05:12:45;998.75;;;915.13;;
55537;SDS011;41383;51.418;7.286;2023-07-29T05:15:11;971.58;;;889.72;;
55537;SDS011;41383;51.418;7.286;2023-07-29T05:17:36;866.20;;;798.60;;
55537;SDS011;41383;51.418;7.286;2023-07-29T05:20:02;1011.22;;;914.72;;
55537;SDS011;41383;51.418;7.286;2023-07-29T05:22:27;830.25;;;763.30;;
55537;SDS011;41383;51.418;7.286;2023-07-29T05:24:53;1011.22;;;922.15;;
55537;SDS011;41383;51.418;7.286;2023-07-29T05:27:18;1109.40;;;999.90;;
55537;SDS011;41383;51.418;7.286;2023-07-29T05:29:44;898.35;;;825.65;;
55537;SDS011;41383;51.418;7.286;2023-07-29T05:32:09;875.25;;;806.13;;
55537;SDS011;41383;51.418;7.286;2023-07-29T05:34:34;909.05;;;837.65;;
55537;SDS011;41383;51.418;7.286;2023-07-29T05:37:00;850.42;;;784.88;;
55537;SDS011;41383;51.418;7.286;2023-07-29T05:39:25;945.97;;;868.28;;
55537;SDS011;41383;51.418;7.286;2023-07-29T05:41:50;969.70;;;889.05;;
55537;SDS011;41383;51.418;7.286;2023-07-29T05:44:16;880.63;;;809.83;;
55537;SDS011;41383;51.418;7.286;2023-07-29T05:46:41;987.53;;;904.53;;
55537;SDS011;41383;51.418;7.286;2023-07-29T05:49:06;930.08;;;856.35;;
55537;SDS011;41383;51.418;7.286;2023-07-29T05:51:32;927.60;;;853.72;;
55537;SDS011;41383;51.418;7.286;2023-07-29T05:53:57;765.97;;;710.00;;
55537;SDS011;41383;51.418;7.286;2023-07-29T05:56:22;682.75;;;634.50;;
55537;SDS011;41383;51.418;7.286;2023-07-29T05:58:48;822.08;;;761.08;;
55537;SDS011;41383;51.418;7.286;2023-07-29T06:01:13;878.65;;;806.55;;
55537;SDS011;41383;51.418;7.286;2023-07-29T06:03:38;784.90;;;723.65;;
55537;SDS011;41383;51.418;7.286;2023-07-29T06:06:03;561.07;;;524.37;;
55537;SDS011;41383;51.418;7.286;2023-07-29T06:08:29;739.78;;;682.78;;
55537;SDS011;41383;51.418;7.286;2023-07-29T06:10:54;634.50;;;583.28;;
55537;SDS011;41383;51.418;7.286;2023-07-29T06:13:20;886.28;;;814.15;;
55537;SDS011;41383;51.418;7.286;2023-07-29T06:15:45;913.22;;;838.63;;
55537;SDS011;41383;51.418;7.286;2023-07-29T06:18:10;911.00;;;839.90;;
55537;SDS011;41383;51.418;7.286;2023-07-29T06:20:35;835.38;;;770.80;;
55537;SDS011;41383;51.418;7.286;2023-07-29T06:23:01;915.63;;;842.85;;
55537;SDS011;41383;51.418;7.286;2023-07-29T06:25:27;739.83;;;681.80;;
55537;SDS011;41383;51.418;7.286;2023-07-29T06:27:52;803.83;;;742.70;;
55537;SDS011;41383;51.418;7.286;2023-07-29T06:30:17;924.78;;;851.70;;
55537;SDS011;41383;51.418;7.286;2023-07-29T06:32:43;718.95;;;663.80;;
55537;SDS011;41383;51.418;7.286;2023-07-29T06:35:08;602.50;;;559.88;;
55537;SDS011;41383;51.418;7.286;2023-07-29T06:37:34;824.53;;;760.60;;
55537;SDS011;41383;51.418;7.286;2023-07-29T06:39:59;737.30;;;678.88;;
55537;SDS011;41383;51.418;7.286;2023-07-29T06:42:24;641.72;;;593.40;;
55537;SDS011;41383;51.418;7.286;2023-07-29T06:44:49;565.03;;;524.53;;
55537;SDS011;41383;51.418;7.286;2023-07-29T06:47:15;995.63;;;917.33;;
55537;SDS011;41383;51.418;7.286;2023-07-29T06:49:40;797.30;;;736.40;;
55537;SDS011;41383;51.418;7.286;2023-07-29T06:52:05;676.33;;;625.83;;
55537;SDS011;41383;51.418;7.286;2023-07-29T06:54:31;660.50;;;609.55;;
55537;SDS011;41383;51.418;7.286;2023-07-29T06:56:56;659.53;;;611.70;;
55537;SDS011;41383;51.418;7.286;2023-07-29T06:59:21;583.13;;;542.83;;
55537;SDS011;41383;51.418;7.286;2023-07-29T07:01:47;565.13;;;526.38;;
55537;SDS011;41383;51.418;7.286;2023-07-29T07:04:12;785.03;;;725.23;;
55537;SDS011;41383;51.418;7.286;2023-07-29T07:06:37;669.72;;;620.80;;
55537;SDS011;41383;51.418;7.286;2023-07-29T07:09:03;506.67;;;475.73;;
55537;SDS011;41383;51.418;7.286;2023-07-29T07:11:28;511.52;;;481.38;;
55537;SDS011;41383;51.418;7.286;2023-07-29T07:13:53;473.85;;;444.25;;
55537;SDS011;41383;51.418;7.286;2023-07-29T07:16:19;406.08;;;382.10;;
55537;SDS011;41383;51.418;7.286;2023-07-29T07:18:44;496.95;;;464.05;;
55537;SDS011;41383;51.418;7.286;2023-07-29T07:21:09;457.67;;;429.77;;
55537;SDS011;41383;51.418;7.286;2023-07-29T07:23:35;409.48;;;386.65;;
55537;SDS011;41383;51.418;7.286;2023-07-29T07:26:01;497.10;;;466.55;;
55537;SDS011;41383;51.418;7.286;2023-07-29T07:28:26;422.70;;;399.13;;
55537;SDS011;41383;51.418;7.286;2023-07-29T07:30:52;366.92;;;347.45;;
55537;SDS011;41383;51.418;7.286;2023-07-29T07:33:17;393.10;;;370.73;;
55537;SDS011;41383;51.418;7.286;2023-07-29T07:35:43;415.35;;;390.67;;
55537;SDS011;41383;51.418;7.286;2023-07-29T07:38:08;399.20;;;375.73;;
55537;SDS011;41383;51.418;7.286;2023-07-29T07:40:35;545.75;;;509.95;;
55537;SDS011;41383;51.418;7.286;2023-07-29T07:43:00;269.60;;;255.68;;
55537;SDS011;41383;51.418;7.286;2023-07-29T07:45:26;400.15;;;376.35;;
55537;SDS011;41383;51.418;7.286;2023-07-29T07:47:52;475.00;;;447.58;;
55537;SDS011;41383;51.418;7.286;2023-07-29T07:50:18;499.20;;;465.98;;
55537;SDS011;41383;51.418;7.286;2023-07-29T07:52:43;413.63;;;391.02;;
55537;SDS011;41383;51.418;7.286;2023-07-29T07:55:09;508.30;;;477.03;;
55537;SDS011;41383;51.418;7.286;2023-07-29T07:57:34;766.75;;;714.13;;
55537;SDS011;41383;51.418;7.286;2023-07-29T07:59:59;371.07;;;351.13;;
55537;SDS011;41383;51.418;7.286;2023-07-29T08:02:25;542.53;;;511.73;;
55537;SDS011;41383;51.418;7.286;2023-07-29T08:04:50;400.95;;;377.92;;
55537;SDS011;41383;51.418;7.286;2023-07-29T08:07:15;231.13;;;219.77;;
55537;SDS011;41383;51.418;7.286;2023-07-29T08:09:40;886.17;;;826.70;;
55537;SDS011;41383;51.418;7.286;2023-07-29T08:12:06;911.33;;;846.67;;
55537;SDS011;41383;51.418;7.286;2023-07-29T08:14:31;782.53;;;727.88;;
55537;SDS011;41383;51.418;7.286;2023-07-29T08:16:58;1035.85;;;958.95;;
55537;SDS011;41383;51.418;7.286;2023-07-29T08:19:23;1084.95;;;997.97;;
55537;SDS011;41383;51.418;7.286;2023-07-29T08:21:48;1013.22;;;938.05;;
55537;SDS011;41383;51.418;7.286;2023-07-29T08:24:14;1001.53;;;927.25;;
55537;SDS011;41383;51.418;7.286;2023-07-29T08:26:39;1073.25;;;984.85;;
55537;SDS011;41383;51.418;7.286;2023-07-29T08:29:04;1051.55;;;970.58;;
55537;SDS011;41383;51.418;7.286;2023-07-29T08:31:30;994.78;;;916.60;;
55537;SDS011;41383;51.418;7.286;2023-07-29T08:33:58;1029.30;;;951.80;;
55537;SDS011;41383;51.418;7.286;2023-07-29T08:36:24;1044.93;;;967.42;;
55537;SDS011;41383;51.418;7.286;2023-07-29T08:38:49;1023.50;;;945.28;;
55537;SDS011;41383;51.418;7.286;2023-07-29T08:41:31;1056.83;;;974.20;;
55537;SDS011;41383;51.418;7.286;2023-07-29T08:46:50;1036.78;;;958.25;;
55537;SDS011;41383;51.418;7.286;2023-07-29T08:49:16;1027.80;;;941.35;;
55537;SDS011;41383;51.418;7.286;2023-07-29T08:51:44;995.08;;;919.65;;
55537;SDS011;41383;51.418;7.286;2023-07-29T08:54:11;1042.47;;;961.40;;
55537;SDS011;41383;51.418;7.286;2023-07-29T08:56:37;1026.20;;;950.97;;
55537;SDS011;41383;51.418;7.286;2023-07-29T08:59:03;1052.32;;;970.90;;
55537;SDS011;41383;51.418;7.286;2023-07-29T09:01:30;1054.32;;;973.17;;
55537;SDS011;41383;51.418;7.286;2023-07-29T09:03:55;1002.13;;;929.17;;
55537;SDS011;41383;51.418;7.286;2023-07-29T09:06:21;1018.53;;;943.58;;
55537;SDS011;41383;51.418;7.286;2023-07-29T09:08:48;1072.30;;;990.15;;
55537;SDS011;41383;51.418;7.286;2023-07-29T09:11:15;957.42;;;888.10;;
55537;SDS011;41383;51.418;7.286;2023-07-29T09:13:42;1034.53;;;956.45;;
55537;SDS011;41383;51.418;7.286;2023-07-29T09:16:07;965.60;;;899.05;;
55537;SDS011;41383;51.418;7.286;2023-07-29T09:18:34;1010.97;;;933.35;;
55537;SDS011;41383;51.418;7.286;2023-07-29T09:20:59;777.58;;;730.22;;
55537;SDS011;41383;51.418;7.286;2023-07-29T09:23:28;634.42;;;596.10;;
55537;SDS011;41383;51.418;7.286;2023-07-29T09:26:00;648.88;;;612.15;;
55537;SDS011;41383;51.418;7.286;2023-07-29T09:28:26;533.70;;;503.30;;
55537;SDS011;41383;51.418;7.286;2023-07-29T09:30:52;695.63;;;654.10;;
55537;SDS011;41383;51.418;7.286;2023-07-29T09:33:18;454.70;;;429.23;;
55537;SDS011;41383;51.418;7.286;2023-07-29T09:35:43;614.45;;;579.65;;
55537;SDS011;41383;51.418;7.286;2023-07-29T09:38:13;905.35;;;845.55;;
55537;SDS011;41383;51.418;7.286;2023-07-29T09:40:40;877.63;;;814.88;;
55537;SDS011;41383;51.418;7.286;2023-07-29T09:43:07;848.10;;;791.67;;
55537;SDS011;41383;51.418;7.286;2023-07-29T09:45:35;908.47;;;847.22;;
55537;SDS011;41383;51.418;7.286;2023-07-29T09:48:02;1387.93;;;999.28;;
55537;SDS011;41383;51.418;7.286;2023-07-29T09:50:29;1999.90;;;999.90;;
55537;SDS011;41383;51.418;7.286;2023-07-29T09:52:55;1999.90;;;999.90;;
55537;SDS011;41383;51.418;7.286;2023-07-29T09:55:23;1999.90;;;999.90;;
55537;SDS011;41383;51.418;7.286;2023-07-29T09:57:53;1999.90;;;999.90;;
55537;SDS011;41383;51.418;7.286;2023-07-29T10:00:19;1999.90;;;999.90;;
55537;SDS011;41383;51.418;7.286;2023-07-29T10:02:45;1999.90;;;999.90;;
55537;SDS011;41383;51.418;7.286;2023-07-29T10:05:10;1999.90;;;999.90;;
55537;SDS011;41383;51.418;7.286;2023-07-29T10:07:36;1999.90;;;999.90;;
55537;SDS011;41383;51.418;7.286;2023-07-29T10:10:06;1999.90;;;999.90;;
55537;SDS011;41383;51.418;7.286;2023-07-29T10:12:33;1999.90;;;999.90;;
55537;SDS011;41383;51.418;7.286;2023-07-29T10:15:00;1999.90;;;999.90;;
55537;SDS011;41383;51.418;7.286;2023-07-29T10:17:29;1999.90;;;999.90;;
55537;SDS011;41383;51.418;7.286;2023-07-29T10:19:55;1999.90;;;999.90;;
55537;SDS011;41383;51.418;7.286;2023-07-29T10:22:22;1999.90;;;999.90;;
55537;SDS011;41383;51.418;7.286;2023-07-29T10:24:53;1999.90;;;999.90;;
55537;SDS011;41383;51.418;7.286;2023-07-29T10:27:22;1999.90;;;999.90;;
55537;SDS011;41383;51.418;7.286;2023-07-29T10:29:49;1999.90;;;999.90;;
55537;SDS011;41383;51.418;7.286;2023-07-29T10:32:15;1999.90;;;999.90;;
55537;SDS011;41383;51.418;7.286;2023-07-29T10:34:41;1999.90;;;999.90;;
55537;SDS011;41383;51.418;7.286;2023-07-29T10:37:07;1999.90;;;999.90;;
55537;SDS011;41383;51.418;7.286;2023-07-29T10:39:39;1999.90;;;999.90;;
55537;SDS011;41383;51.418;7.286;2023-07-29T10:42:06;1999.90;;;999.90;;
55537;SDS011;41383;51.418;7.286;2023-07-29T10:47:14;1999.90;;;999.90;;
55537;SDS011;41383;51.418;7.286;2023-07-29T10:49:40;1999.90;;;999.90;;
55537;SDS011;41383;51.418;7.286;2023-07-29T10:52:13;1999.90;;;999.90;;
55537;SDS011;41383;51.418;7.286;2023-07-29T10:54:52;1999.90;;;999.90;;
55537;SDS011;41383;51.418;7.286;2023-07-29T10:57:34;1999.90;;;999.90;;
55537;SDS011;41383;51.418;7.286;2023-07-29T11:00:04;1999.90;;;999.90;;
55537;SDS011;41383;51.418;7.286;2023-07-29T11:02:30;1999.90;;;999.90;;
55537;SDS011;41383;51.418;7.286;2023-07-29T11:05:07;1999.90;;;999.90;;
55537;SDS011;41383;51.418;7.286;2023-07-29T11:07:44;1999.90;;;999.90;;
55537;SDS011;41383;51.418;7.286;2023-07-29T11:10:11;1999.90;;;826.40;;
55537;SDS011;41383;51.418;7.286;2023-07-29T11:12:38;1999.90;;;979.33;;
55537;SDS011;41383;51.418;7.286;2023-07-29T11:17:35;1999.90;;;999.90;;
55537;SDS011;41383;51.418;7.286;2023-07-29T11:20:04;1999.90;;;999.90;;
55537;SDS011;41383;51.418;7.286;2023-07-29T11:22:30;1999.90;;;825.70;;
55537;SDS011;41383;51.418;7.286;2023-07-29T11:24:55;1790.55;;;460.48;;
55537;SDS011;41383;51.418;7.286;2023-07-29T11:27:21;1999.90;;;992.75;;
55537;SDS011;41383;51.418;7.286;2023-07-29T11:29:46;1999.90;;;912.70;;
55537;SDS011;41383;51.418;7.286;2023-07-29T11:32:12;1999.90;;;782.65;;
55537;SDS011;41383;51.418;7.286;2023-07-29T11:34:38;1569.85;;;624.55;;
55537;SDS011;41383;51.418;7.286;2023-07-29T11:37:05;1999.90;;;999.90;;
55537;SDS011;41383;51.418;7.286;2023-07-29T11:39:31;1999.90;;;999.90;;
55537;SDS011;41383;51.418;7.286;2023-07-29T11:41:57;1999.90;;;999.90;;
55537;SDS011;41383;51.418;7.286;2023-07-29T11:44:23;1999.90;;;999.90;;
55537;SDS011;41383;51.418;7.286;2023-07-29T11:46:48;1999.90;;;999.90;;
55537;SDS011;41383;51.418;7.286;2023-07-29T11:49:13;1999.90;;;999.90;;
55537;SDS011;41383;51.418;7.286;2023-07-29T11:51:39;1999.90;;;999.90;;
55537;SDS011;41383;51.418;7.286;2023-07-29T11:54:06;1999.90;;;999.90;;
55537;SDS011;41383;51.418;7.286;2023-07-29T11:56:32;1999.90;;;999.90;;
55537;SDS011;41383;51.418;7.286;2023-07-29T11:58:57;1999.90;;;999.90;;
55537;SDS011;41383;51.418;7.286;2023-07-29T12:01:23;1999.90;;;999.90;;
55537;SDS011;41383;51.418;7.286;2023-07-29T12:03:49;1999.90;;;999.90;;
55537;SDS011;41383;51.418;7.286;2023-07-29T12:06:16;1999.90;;;999.90;;
55537;SDS011;41383;51.418;7.286;2023-07-29T12:08:42;1999.90;;;999.90;;
55537;SDS011;41383;51.418;7.286;2023-07-29T12:11:08;1999.90;;;999.90;;
55537;SDS011;41383;51.418;7.286;2023-07-29T12:13:35;1999.90;;;999.90;;
55537;SDS011;41383;51.418;7.286;2023-07-29T12:16:01;1999.90;;;984.22;;
55537;SDS011;41383;51.418;7.286;2023-07-29T12:18:31;1999.90;;;815.67;;
55537;SDS011;41383;51.418;7.286;2023-07-29T12:20:57;1999.90;;;592.42;;
55537;SDS011;41383;51.418;7.286;2023-07-29T12:23:26;1999.90;;;640.45;;
55537;SDS011;41383;51.418;7.286;2023-07-29T12:25:56;1164.60;;;306.58;;
55537;SDS011;41383;51.418;7.286;2023-07-29T12:28:22;1999.90;;;999.90;;
55537;SDS011;41383;51.418;7.286;2023-07-29T12:30:48;1999.90;;;698.42;;
55537;SDS011;41383;51.418;7.286;2023-07-29T12:36:03;1999.90;;;813.90;;
55537;SDS011;41383;51.418;7.286;2023-07-29T12:38:29;1999.90;;;999.90;;
55537;SDS011;41383;51.418;7.286;2023-07-29T12:40:55;1339.47;;;833.50;;
55537;SDS011;41383;51.418;7.286;2023-07-29T12:43:24;979.83;;;891.03;;
55537;SDS011;41383;51.418;7.286;2023-07-29T12:45:50;1006.53;;;839.97;;
55537;SDS011;41383;51.418;7.286;2023-07-29T12:48:16;912.85;;;739.60;;
55537;SDS011;41383;51.418;7.286;2023-07-29T12:50:42;1560.88;;;999.90;;
55537;SDS011;41383;51.418;7.286;2023-07-29T12:53:07;1999.90;;;999.90;;
55537;SDS011;41383;51.418;7.286;2023-07-29T12:55:35;1999.90;;;999.90;;
55537;SDS011;41383;51.418;7.286;2023-07-29T12:58:00;1999.90;;;999.90;;
55537;SDS011;41383;51.418;7.286;2023-07-29T13:00:26;1999.90;;;999.90;;
55537;SDS011;41383;51.418;7.286;2023-07-29T13:02:51;878.42;;;786.45;;
55537;SDS011;41383;51.418;7.286;2023-07-29T13:05:17;859.30;;;792.42;;
55537;SDS011;41383;51.418;7.286;2023-07-29T13:07:42;1999.90;;;999.90;;
55537;SDS011;41383;51.418;7.286;2023-07-29T13:10:09;1111.47;;;999.90;;
55537;SDS011;41383;51.418;7.286;2023-07-29T13:12:35;840.45;;;771.65;;
55537;SDS011;41383;51.418;7.286;2023-07-29T13:15:00;844.80;;;779.78;;
55537;SDS011;41383;51.418;7.286;2023-07-29T13:17:26;875.42;;;789.03;;
55537;SDS011;41383;51.418;7.286;2023-07-29T13:19:51;735.20;;;678.77;;
55537;SDS011;41383;51.418;7.286;2023-07-29T13:22:17;319.17;;;296.30;;
55537;SDS011;41383;51.418;7.286;2023-07-29T13:24:42;452.10;;;417.77;;
55537;SDS011;41383;51.418;7.286;2023-07-29T13:27:08;1007.10;;;900.45;;
55537;SDS011;41383;51.418;7.286;2023-07-29T13:29:33;1599.10;;;999.90;;
55537;SDS011;41383;51.418;7.286;2023-07-29T13:31:58;1999.90;;;999.90;;
55537;SDS011;41383;51.418;7.286;2023-07-29T13:34:24;1999.90;;;999.90;;
55537;SDS011;41383;51.418;7.286;2023-07-29T13:36:49;1999.90;;;999.90;;
55537;SDS011;41383;51.418;7.286;2023-07-29T13:39:15;1999.90;;;999.90;;
55537;SDS011;41383;51.418;7.286;2023-07-29T13:41:40;1999.90;;;999.90;;
55537;SDS011;41383;51.418;7.286;2023-07-29T13:44:05;1999.90;;;999.90;;
55537;SDS011;41383;51.418;7.286;2023-07-29T13:46:31;1999.90;;;999.90;;
55537;SDS011;41383;51.418;7.286;2023-07-29T13:48:56;1999.90;;;999.90;;
55537;SDS011;41383;51.418;7.286;2023-07-29T13:51:22;1999.90;;;999.90;;
55537;SDS011;41383;51.418;7.286;2023-07-29T13:53:47;1999.90;;;999.90;;
55537;SDS011;41383;51.418;7.286;2023-07-29T13:56:13;1999.90;;;999.90;;
55537;SDS011;41383;51.418;7.286;2023-07-29T13:58:38;1999.90;;;999.90;;